Terminal Aerodrome Forecast
Issued by NWS Louisville, KY

Home | Current Version | Previous Version | Text Only | Print | Product List | Glossary On
Versions: 1 2 3 4 5 6 7 8 9 10 11 12 13 14 15
000
FTUS43 KLMK 232300
TAFBWG
TAF
KBWG 232326Z 2400/2424 33005KT P6SM SCT040 BKN150
     FM240500 32004KT P6SM VCSH BKN025
     FM240900 31004KT 6SM -DZ BR BKN008
     FM241400 03007KT P6SM BKN010
     FM241700 02007KT P6SM SCT015 BKN025=

USA.gov is the U.S. government's official web portal to all federal, state and local government web resources and services.